createdAt,value
2023-03-21T00:00:48.943Z,1.20
2023-03-21T00:03:17.173Z,1.50
2023-03-21T00:05:49.874Z,1.50
2023-03-21T00:08:18.215Z,1.60
2023-03-21T00:10:46.184Z,1.57
2023-03-21T00:13:15.297Z,1.70
2023-03-21T00:16:04.450Z,1.83
2023-03-21T00:18:36.782Z,1.57
2023-03-21T00:23:56.798Z,2.03
2023-03-21T00:26:24.858Z,1.43
2023-03-21T00:28:52.949Z,1.77
2023-03-21T00:31:22.162Z,1.57
2023-03-21T00:33:51.724Z,1.47
2023-03-21T00:36:21.594Z,1.40
2023-03-21T00:38:49.780Z,1.40
2023-03-21T00:41:31.726Z,1.60
2023-03-21T00:44:06.267Z,1.67
2023-03-21T00:46:43.952Z,1.57
2023-03-21T00:49:13.547Z,1.70
2023-03-21T00:51:43.810Z,1.70
2023-03-21T00:54:13.635Z,1.60
2023-03-21T00:56:42.435Z,1.90
2023-03-21T00:59:11.547Z,1.63
2023-03-21T01:01:39.648Z,1.70
2023-03-21T01:04:13.733Z,2.57
2023-03-21T01:06:44.855Z,2.00
2023-03-21T01:09:17.664Z,1.60
2023-03-21T01:11:46.531Z,1.87
2023-03-21T01:14:22.466Z,1.83
2023-03-21T01:16:52.037Z,1.50
2023-03-21T01:19:27.634Z,1.63
2023-03-21T01:21:58.993Z,1.60
2023-03-21T01:24:27.219Z,2.10
2023-03-21T01:26:55.365Z,1.80
2023-03-21T01:29:23.514Z,2.00
2023-03-21T01:31:51.527Z,2.70
2023-03-21T01:34:19.458Z,2.03
2023-03-21T01:36:47.688Z,2.43
2023-03-21T01:39:21.513Z,2.17
2023-03-21T01:41:51.130Z,1.83
2023-03-21T01:44:22.201Z,1.87
2023-03-21T01:47:11.592Z,1.60
2023-03-21T01:49:58.127Z,1.80
2023-03-21T01:52:37.460Z,2.07
2023-03-21T01:55:19.877Z,1.87
2023-03-21T01:58:05.765Z,1.80
2023-03-21T02:00:58.536Z,1.50
2023-03-21T02:03:51.627Z,1.63
2023-03-21T02:06:31.744Z,1.90
2023-03-21T02:09:11.940Z,2.00
2023-03-21T02:11:46.441Z,1.37
2023-03-21T02:14:28.387Z,1.47
2023-03-21T02:17:17.747Z,1.83
2023-03-21T02:20:22.007Z,1.70
2023-03-21T02:23:21.297Z,2.03
2023-03-21T02:26:24.792Z,1.70
2023-03-21T02:29:03.026Z,1.63
2023-03-21T02:31:43.218Z,1.67
2023-03-21T02:34:51.653Z,1.87
2023-03-21T02:37:36.622Z,1.60
2023-03-21T02:40:11.377Z,1.40
2023-03-21T02:42:59.438Z,1.60
2023-03-21T02:45:33.863Z,1.83
2023-03-21T02:48:07.009Z,1.47
2023-03-21T02:50:42.538Z,2.00
2023-03-21T02:53:14.796Z,2.07
2023-03-21T02:55:44.871Z,2.73
2023-03-21T02:58:16.699Z,2.13
2023-03-21T03:00:55.410Z,1.70
2023-03-21T03:03:47.669Z,2.00
2023-03-21T03:06:20.850Z,1.97
2023-03-21T03:09:06.819Z,2.10
2023-03-21T03:11:37.430Z,2.00
2023-03-21T03:14:56.489Z,2.03
2023-03-21T03:17:35.926Z,1.57
2023-03-21T03:20:17.508Z,1.53
2023-03-21T03:22:54.308Z,1.60
2023-03-21T03:25:41.557Z,1.53
2023-03-21T03:28:11.628Z,1.30
2023-03-21T03:30:51.071Z,1.67
2023-03-21T03:33:30.834Z,1.30
2023-03-21T03:36:06.819Z,1.30
2023-03-21T03:38:39.867Z,1.30
2023-03-21T03:41:19.339Z,1.67
2023-03-21T03:43:55.476Z,2.07
2023-03-21T03:46:33.428Z,1.90
2023-03-21T03:49:06.358Z,1.80
2023-03-21T03:51:40.365Z,1.80
2023-03-21T03:54:21.180Z,1.50
2023-03-21T03:56:51.958Z,1.53
2023-03-21T03:59:21.918Z,1.60
2023-03-21T04:01:59.242Z,1.67
2023-03-21T04:04:29.368Z,1.57
2023-03-21T04:06:58.871Z,1.70
2023-03-21T04:09:42.550Z,2.10
2023-03-21T04:12:12.870Z,1.70
2023-03-21T04:14:47.240Z,1.50
2023-03-21T04:17:18.674Z,1.60
2023-03-21T04:19:46.618Z,1.70
2023-03-21T04:22:14.913Z,2.00
2023-03-21T04:24:45.126Z,2.10
2023-03-21T04:27:15.625Z,2.30
2023-03-21T04:29:48.674Z,1.70
2023-03-21T04:32:39.448Z,2.27
2023-03-21T04:35:14.850Z,2.10
2023-03-21T04:37:42.969Z,1.80
2023-03-21T04:40:17.794Z,1.73
2023-03-21T04:42:48.514Z,1.87
2023-03-21T04:45:18.163Z,2.00
2023-03-21T04:47:47.182Z,1.57
2023-03-21T04:50:15.987Z,1.90
2023-03-21T04:52:44.417Z,1.90
2023-03-21T04:55:12.492Z,1.70
2023-03-21T04:57:41.347Z,1.77
2023-03-21T05:00:13.843Z,1.97
2023-03-21T05:02:42.058Z,1.90
2023-03-21T05:05:12.138Z,1.60
2023-03-21T05:07:41.148Z,2.23
2023-03-21T05:10:12.041Z,1.87
2023-03-21T05:12:42.325Z,2.30
2023-03-21T05:15:12.124Z,1.67
2023-03-21T05:17:42.854Z,1.80
2023-03-21T05:20:12.532Z,2.00
2023-03-21T05:22:41.417Z,2.40
2023-03-21T05:25:14.194Z,1.83
2023-03-21T05:28:09.049Z,2.10
2023-03-21T05:30:38.951Z,2.57
2023-03-21T05:33:08.151Z,2.53
2023-03-21T05:35:36.421Z,2.90
2023-03-21T05:38:08.186Z,2.70
2023-03-21T05:40:48.522Z,2.30
2023-03-21T05:43:17.687Z,2.13
2023-03-21T05:45:48.546Z,2.30
2023-03-21T05:48:18.151Z,1.97
2023-03-21T05:51:06.361Z,2.10
2023-03-21T05:53:35.123Z,2.10
2023-03-21T05:56:03.275Z,2.23
2023-03-21T05:58:43.814Z,1.80
2023-03-21T06:01:13.677Z,2.20
2023-03-21T06:03:46.356Z,2.40
2023-03-21T06:06:18.073Z,2.30
2023-03-21T06:08:56.924Z,2.47
2023-03-21T06:11:28.302Z,2.60
2023-03-21T06:14:20.330Z,2.47
2023-03-21T06:17:06.116Z,2.53
2023-03-21T06:19:37.447Z,2.10
2023-03-21T06:22:12.882Z,2.10
2023-03-21T06:24:42.305Z,3.37
2023-03-21T06:27:10.366Z,3.40
2023-03-21T06:29:51.163Z,2.90
2023-03-21T06:32:21.234Z,2.23
2023-03-21T06:34:52.957Z,2.27
2023-03-21T06:37:21.274Z,2.90
2023-03-21T06:39:49.250Z,2.23
2023-03-21T06:42:17.309Z,2.20
2023-03-21T06:44:45.303Z,2.33
2023-03-21T06:47:16.212Z,2.47
2023-03-21T06:49:48.066Z,2.33
2023-03-21T06:52:16.221Z,2.43
2023-03-21T06:54:44.550Z,2.80
2023-03-21T06:57:13.920Z,2.90
2023-03-21T06:59:42.564Z,3.27
2023-03-21T07:02:33.004Z,3.23
2023-03-21T07:05:22.540Z,3.53
2023-03-21T07:07:50.510Z,3.47
2023-03-21T07:10:19.371Z,2.97
2023-03-21T07:12:54.317Z,2.80
2023-03-21T07:15:42.302Z,2.37
2023-03-21T07:18:11.085Z,2.63
2023-03-21T07:20:40.493Z,2.90
2023-03-21T07:23:09.366Z,2.70
2023-03-21T07:25:37.952Z,2.80
2023-03-21T07:28:09.126Z,2.83
2023-03-21T07:30:37.713Z,2.37
2023-03-21T07:33:06.004Z,2.80
2023-03-21T07:35:36.497Z,2.83
2023-03-21T07:38:06.759Z,3.00
2023-03-21T07:40:35.245Z,3.40
2023-03-21T07:43:03.546Z,3.43
2023-03-21T07:45:35.172Z,3.60
2023-03-21T07:48:05.396Z,4.20
2023-03-21T07:50:36.443Z,3.60
2023-03-21T07:53:05.949Z,3.00
2023-03-21T07:55:35.054Z,3.23
2023-03-21T07:58:03.456Z,3.70
2023-03-21T08:00:31.931Z,3.07
2023-03-21T08:03:00.415Z,3.63
2023-03-21T08:05:31.343Z,2.93
2023-03-21T08:07:59.409Z,3.30
2023-03-21T08:10:29.312Z,2.77
2023-03-21T08:12:57.345Z,3.33
2023-03-21T08:15:25.653Z,3.07
2023-03-21T08:17:53.669Z,3.57
2023-03-21T08:20:23.786Z,3.90
2023-03-21T08:22:52.272Z,2.80
2023-03-21T08:25:22.178Z,3.60
2023-03-21T08:27:52.483Z,3.00
2023-03-21T08:30:24.018Z,2.90
2023-03-21T08:32:52.338Z,3.63
2023-03-21T08:35:21.151Z,2.97
2023-03-21T08:37:49.200Z,2.80
2023-03-21T08:40:18.964Z,3.17
2023-03-21T08:42:47.695Z,3.57
2023-03-21T08:45:18.858Z,3.10
2023-03-21T08:47:47.198Z,3.10
2023-03-21T08:50:18.818Z,2.93
2023-03-21T08:52:47.140Z,2.53
2023-03-21T08:55:16.323Z,3.13
2023-03-21T08:57:44.941Z,3.37
2023-03-21T09:00:17.242Z,2.90
2023-03-21T09:02:48.331Z,3.27
2023-03-21T09:05:16.812Z,3.00
2023-03-21T09:07:45.007Z,2.77
2023-03-21T09:10:21.163Z,3.63
2023-03-21T09:12:50.924Z,3.33
2023-03-21T09:15:21.905Z,3.30
2023-03-21T09:17:53.213Z,3.70
2023-03-21T09:20:25.925Z,2.90
2023-03-21T09:22:54.652Z,2.67
2023-03-21T09:25:23.931Z,3.50
2023-03-21T09:27:52.367Z,2.73
2023-03-21T09:30:24.728Z,3.03
2023-03-21T09:32:55.915Z,2.80
2023-03-21T09:35:27.036Z,3.20
2023-03-21T09:37:57.534Z,3.30
2023-03-21T09:40:45.898Z,3.17
2023-03-21T09:43:28.011Z,3.30
2023-03-21T09:46:02.360Z,3.00
2023-03-21T09:48:50.528Z,3.40
2023-03-21T09:51:26.195Z,3.00
2023-03-21T09:53:57.192Z,3.60
2023-03-21T09:56:27.564Z,5.00
2023-03-21T09:58:59.281Z,3.10
2023-03-21T10:01:32.759Z,2.80
2023-03-21T10:04:06.337Z,3.17
2023-03-21T10:06:40.058Z,3.53
2023-03-21T10:09:14.360Z,3.50
2023-03-21T10:11:46.091Z,3.00
2023-03-21T10:14:20.563Z,3.03
2023-03-21T10:16:57.150Z,2.80
2023-03-21T10:19:29.600Z,2.90
2023-03-21T10:22:01.827Z,2.87
2023-03-21T10:24:34.886Z,2.53
2023-03-21T10:27:04.752Z,2.77
2023-03-21T10:29:38.423Z,3.17
2023-03-21T10:32:08.929Z,3.10
2023-03-21T10:34:43.509Z,3.20
2023-03-21T10:37:13.729Z,2.83
2023-03-21T10:39:44.646Z,2.83
2023-03-21T10:42:21.304Z,2.90
2023-03-21T10:44:51.438Z,2.73
2023-03-21T10:47:22.949Z,2.60
2023-03-21T10:50:09.836Z,2.57
2023-03-21T10:52:43.280Z,2.50
2023-03-21T10:55:21.679Z,1.90
2023-03-21T10:57:53.845Z,2.50
2023-03-21T11:00:25.818Z,2.80
2023-03-21T11:02:54.971Z,2.13
2023-03-21T11:05:27.138Z,2.27
2023-03-21T11:08:01.521Z,2.17
2023-03-21T11:10:32.615Z,1.80
2023-03-21T11:13:06.614Z,1.83
2023-03-21T11:15:42.592Z,1.87
2023-03-21T11:18:20.660Z,1.80
2023-03-21T11:20:56.446Z,2.10
2023-03-21T11:23:28.403Z,1.90
2023-03-21T11:25:58.372Z,1.80
2023-03-21T11:28:33.944Z,1.93
2023-03-21T11:31:04.442Z,2.10
2023-03-21T11:33:36.444Z,1.90
2023-03-21T11:36:08.175Z,1.93
2023-03-21T11:38:38.898Z,1.83
2023-03-21T11:41:08.473Z,2.20
2023-03-21T11:43:37.977Z,1.40
2023-03-21T11:46:11.138Z,1.63
2023-03-21T11:48:42.572Z,1.83
2023-03-21T11:51:21.856Z,1.60
2023-03-21T11:53:57.890Z,1.30
2023-03-21T11:56:29.289Z,1.30
2023-03-21T11:59:11.258Z,1.40
2023-03-21T12:01:49.415Z,1.67
2023-03-21T12:04:27.439Z,1.40
2023-03-21T12:07:03.911Z,1.50
2023-03-21T12:09:41.720Z,1.60
2023-03-21T12:12:38.476Z,1.60
2023-03-21T12:15:14.039Z,1.57
2023-03-21T12:17:50.538Z,1.40
2023-03-21T12:20:32.235Z,1.50
2023-03-21T12:23:45.808Z,1.70
2023-03-21T12:26:23.339Z,1.60
2023-03-21T12:29:13.524Z,1.50
2023-03-21T12:31:55.537Z,1.33
2023-03-21T12:34:40.918Z,1.33
2023-03-21T12:37:18.586Z,1.10
2023-03-21T12:39:49.703Z,1.30
2023-03-21T12:42:41.715Z,1.20
2023-03-21T12:45:16.851Z,1.70
2023-03-21T12:47:49.778Z,1.60
2023-03-21T12:50:25.673Z,1.50
2023-03-21T12:52:57.166Z,1.30
2023-03-21T12:55:30.822Z,1.67
2023-03-21T12:58:04.900Z,1.03
2023-03-21T13:00:37.731Z,1.33
2023-03-21T13:03:12.502Z,1.10
2023-03-21T13:05:45.677Z,1.80
2023-03-21T13:08:18.271Z,1.47
2023-03-21T13:10:48.150Z,1.30
2023-03-21T13:13:26.232Z,1.60
2023-03-21T13:16:01.624Z,1.30
2023-03-21T13:18:56.316Z,1.50
2023-03-21T13:21:32.759Z,1.10
2023-03-21T13:24:03.609Z,1.20
2023-03-21T13:26:40.627Z,1.50
2023-03-21T13:29:19.545Z,1.30
2023-03-21T13:31:52.440Z,1.20
2023-03-21T13:34:23.388Z,1.17
2023-03-21T13:36:53.358Z,1.40
2023-03-21T13:39:25.864Z,1.40
2023-03-21T13:41:56.631Z,1.83
2023-03-21T13:44:33.147Z,1.37
2023-03-21T13:47:03.556Z,1.20
2023-03-21T13:49:34.894Z,1.37
2023-03-21T13:52:21.879Z,1.40
2023-03-21T13:54:54.474Z,1.40
2023-03-21T13:57:39.228Z,1.30
2023-03-21T14:00:21.527Z,1.50
2023-03-21T14:02:57.905Z,1.40
2023-03-21T14:05:27.542Z,1.27
2023-03-21T14:08:06.017Z,1.40
2023-03-21T14:10:37.040Z,1.30
2023-03-21T14:13:07.364Z,1.20
2023-03-21T14:15:46.563Z,1.83
2023-03-21T14:18:28.106Z,1.40
2023-03-21T14:21:05.158Z,1.77
2023-03-21T14:23:35.155Z,1.50
2023-03-21T14:26:04.153Z,1.40
2023-03-21T14:28:36.307Z,1.30
2023-03-21T14:31:04.857Z,1.53
2023-03-21T14:33:36.344Z,1.70
2023-03-21T14:36:09.031Z,1.77
2023-03-21T14:38:39.922Z,1.40
2023-03-21T14:41:22.494Z,1.50
2023-03-21T14:44:04.469Z,1.43
2023-03-21T14:46:32.745Z,1.50
2023-03-21T14:49:12.481Z,1.97
2023-03-21T14:51:42.435Z,1.70
2023-03-21T14:54:14.546Z,1.50
2023-03-21T14:56:45.416Z,1.50
2023-03-21T14:59:17.347Z,1.53
2023-03-21T15:01:48.428Z,1.67
2023-03-21T15:04:18.183Z,1.63
2023-03-21T15:06:55.738Z,1.70
2023-03-21T15:09:28.083Z,1.77
2023-03-21T15:11:57.824Z,1.83
2023-03-21T15:14:31.471Z,1.87
2023-03-21T15:17:02.039Z,2.13
2023-03-21T15:19:33.438Z,1.80
2023-03-21T15:22:11.228Z,1.80
2023-03-21T15:24:42.287Z,1.80
2023-03-21T15:27:16.141Z,1.77
2023-03-21T15:29:46.482Z,1.70
2023-03-21T15:32:18.078Z,1.90
2023-03-21T15:34:47.081Z,2.20
2023-03-21T15:37:18.800Z,1.90
2023-03-21T15:39:49.312Z,1.77
2023-03-21T15:42:28.089Z,1.87
2023-03-21T15:45:02.344Z,2.03
2023-03-21T15:47:51.474Z,2.10
2023-03-21T15:50:27.901Z,2.07
2023-03-21T15:52:57.078Z,1.70
2023-03-21T15:55:28.959Z,2.00
2023-03-21T15:58:01.991Z,2.23
2023-03-21T16:00:40.512Z,1.80
2023-03-21T16:03:14.158Z,2.10
2023-03-21T16:05:42.405Z,1.90
2023-03-21T16:08:21.726Z,2.00
2023-03-21T16:10:49.978Z,1.90
2023-03-21T16:13:18.541Z,2.30
2023-03-21T16:15:47.843Z,2.10
2023-03-21T16:18:17.234Z,2.57
2023-03-21T16:20:49.158Z,1.80
2023-03-21T16:23:17.577Z,2.00
2023-03-21T16:25:46.958Z,1.90
2023-03-21T16:28:16.468Z,1.93
2023-03-21T16:30:44.387Z,2.73
2023-03-21T16:33:14.474Z,1.87
2023-03-21T16:35:42.921Z,2.20
2023-03-21T16:38:11.791Z,2.20
2023-03-21T16:40:43.389Z,2.80
2023-03-21T16:43:12.336Z,3.07
2023-03-21T16:45:40.411Z,3.03
2023-03-21T16:48:12.254Z,3.07
2023-03-21T16:50:43.913Z,2.63
2023-03-21T16:53:11.774Z,2.37
2023-03-21T16:55:40.033Z,2.20
2023-03-21T16:58:08.375Z,2.60
2023-03-21T17:00:37.471Z,2.13
2023-03-21T17:03:15.942Z,2.37
2023-03-21T17:05:45.381Z,3.63
2023-03-21T17:08:18.794Z,3.10
2023-03-21T17:10:47.608Z,2.47
2023-03-21T17:13:16.091Z,2.40
2023-03-21T17:15:44.060Z,2.47
2023-03-21T17:18:13.134Z,1.77
2023-03-21T17:20:41.813Z,2.37
2023-03-21T17:23:11.990Z,2.40
2023-03-21T17:25:40.203Z,2.00
2023-03-21T17:28:08.726Z,2.70
2023-03-21T17:30:40.183Z,2.20
2023-03-21T17:33:08.640Z,2.17
2023-03-21T17:35:37.275Z,2.40
2023-03-21T17:38:05.975Z,2.17
2023-03-21T17:40:35.590Z,2.47
2023-03-21T17:43:03.554Z,2.30
2023-03-21T17:45:31.744Z,2.00
2023-03-21T17:47:59.777Z,2.20
2023-03-21T17:50:34.113Z,2.40
2023-03-21T17:53:02.290Z,2.87
2023-03-21T17:55:31.524Z,2.70
2023-03-21T17:58:00.907Z,3.23
2023-03-21T18:00:30.959Z,3.80
2023-03-21T18:02:59.529Z,3.20
2023-03-21T18:05:27.570Z,3.63
2023-03-21T18:08:12.753Z,4.90
2023-03-21T18:10:42.298Z,4.53
2023-03-21T18:13:12.361Z,9.10
2023-03-21T18:15:44.181Z,9.07
2023-03-21T18:18:13.097Z,6.53
2023-03-21T18:20:58.379Z,7.00
2023-03-21T18:23:26.850Z,7.17
2023-03-21T18:25:54.944Z,6.80
2023-03-21T18:28:24.385Z,6.30
2023-03-21T18:31:08.592Z,4.80
2023-03-21T18:33:40.622Z,4.03
2023-03-21T18:36:09.753Z,3.53
2023-03-21T18:38:38.283Z,3.80
2023-03-21T18:41:07.623Z,3.80
2023-03-21T18:46:26.185Z,3.23
2023-03-21T18:48:55.227Z,3.03
2023-03-21T18:51:23.558Z,3.20
2023-03-21T18:53:51.586Z,3.30
2023-03-21T18:57:05.790Z,4.03
2023-03-21T18:59:09.358Z,3.17
2023-03-21T19:01:37.542Z,3.40
2023-03-21T19:04:20.761Z,3.13
2023-03-21T19:06:51.620Z,3.27
2023-03-21T19:09:19.939Z,3.43
2023-03-21T19:11:47.924Z,3.53
2023-03-21T19:14:18.437Z,3.70
2023-03-21T19:17:32.700Z,3.60
2023-03-21T19:19:35.135Z,4.13
2023-03-21T19:22:03.557Z,4.03
2023-03-21T19:24:31.469Z,4.23
2023-03-21T19:26:59.705Z,4.97
2023-03-21T19:29:29.074Z,4.37
2023-03-21T19:31:57.376Z,4.40
2023-03-21T19:34:26.530Z,4.50
2023-03-21T19:36:54.927Z,5.37
2023-03-21T19:39:24.033Z,5.87
2023-03-21T19:41:55.459Z,4.90
2023-03-21T19:44:33.333Z,4.40
2023-03-21T19:47:01.422Z,4.97
2023-03-21T19:49:52.180Z,6.10
2023-03-21T19:52:20.518Z,4.93
2023-03-21T19:54:48.555Z,5.67
2023-03-21T19:57:17.093Z,5.47
2023-03-21T19:59:47.387Z,5.13
2023-03-21T20:02:34.574Z,4.50
2023-03-21T20:05:03.503Z,5.00
2023-03-21T20:07:32.985Z,4.73
2023-03-21T20:10:01.153Z,5.43
2023-03-21T20:12:29.299Z,6.60
2023-03-21T20:15:10.378Z,5.77
2023-03-21T20:17:44.705Z,5.90
2023-03-21T20:20:17.261Z,5.87
2023-03-21T20:23:07.382Z,5.63
2023-03-21T20:25:36.528Z,4.93
2023-03-21T20:28:25.794Z,4.47
2023-03-21T20:30:58.413Z,4.83
2023-03-21T20:33:26.752Z,4.57
2023-03-21T20:38:50.845Z,5.70
2023-03-21T20:41:19.026Z,5.60
2023-03-21T20:44:34.412Z,7.40
2023-03-21T20:46:37.694Z,7.23
2023-03-21T20:49:07.360Z,6.87
2023-03-21T20:54:24.063Z,6.70
2023-03-21T20:56:52.009Z,6.00
2023-03-21T20:59:26.552Z,6.53
2023-03-21T21:01:58.008Z,6.53
2023-03-21T21:04:46.665Z,6.27
2023-03-21T21:07:17.947Z,5.50
2023-03-21T21:09:47.392Z,4.83
2023-03-21T21:12:18.941Z,4.87
2023-03-21T21:14:47.988Z,4.20
2023-03-21T21:20:16.432Z,3.90
2023-03-21T21:22:58.081Z,3.70
2023-03-21T21:25:27.714Z,4.07
2023-03-21T21:27:55.644Z,4.27
2023-03-21T21:30:23.972Z,5.40
2023-03-21T21:32:54.022Z,5.63
2023-03-21T21:35:22.632Z,6.53
2023-03-21T21:37:51.133Z,5.70
2023-03-21T21:40:23.333Z,6.00
2023-03-21T21:42:51.554Z,5.77
2023-03-21T21:45:20.264Z,5.80
2023-03-21T21:47:48.382Z,5.90
2023-03-21T21:50:18.420Z,5.67
2023-03-21T21:52:52.851Z,6.57
2023-03-21T21:55:21.359Z,8.20
2023-03-21T21:57:50.975Z,7.37
2023-03-21T22:00:20.788Z,6.37
2023-03-21T22:02:48.909Z,4.77
2023-03-21T22:05:18.871Z,5.00
2023-03-21T22:07:47.089Z,4.37
2023-03-21T22:10:15.771Z,3.73
2023-03-21T22:12:43.846Z,4.50
2023-03-21T22:15:13.073Z,4.37
2023-03-21T22:17:42.038Z,5.17
2023-03-21T22:20:12.744Z,4.93
2023-03-21T22:22:42.821Z,4.13
2023-03-21T22:25:12.956Z,3.93
2023-03-21T22:27:41.222Z,4.00
2023-03-21T22:30:13.836Z,3.67
2023-03-21T22:32:42.498Z,2.90
2023-03-21T22:35:11.617Z,3.90
2023-03-21T22:37:42.869Z,4.27
2023-03-21T22:40:13.148Z,4.57
2023-03-21T22:42:41.558Z,5.07
2023-03-21T22:45:11.572Z,4.97
2023-03-21T22:47:39.866Z,4.70
2023-03-21T22:50:09.538Z,6.07
2023-03-21T22:52:37.371Z,4.63
2023-03-21T22:55:09.819Z,4.33
2023-03-21T22:57:37.788Z,4.60
2023-03-21T23:00:13.131Z,4.50
2023-03-21T23:02:41.649Z,4.53
2023-03-21T23:05:10.429Z,4.10
2023-03-21T23:07:38.440Z,3.70
2023-03-21T23:10:11.976Z,3.80
2023-03-21T23:12:40.269Z,3.13
2023-03-21T23:15:10.129Z,4.47
2023-03-21T23:17:38.237Z,4.40
2023-03-21T23:20:07.235Z,3.47
2023-03-21T23:22:36.096Z,3.27
2023-03-21T23:25:04.620Z,2.93
2023-03-21T23:27:35.265Z,3.00
2023-03-21T23:30:04.909Z,2.77
2023-03-21T23:32:32.876Z,2.80
2023-03-21T23:35:01.025Z,5.50
2023-03-21T23:37:29.947Z,6.47
2023-03-21T23:39:58.150Z,5.37
2023-03-21T23:42:26.991Z,4.20
2023-03-21T23:44:57.284Z,3.67
2023-03-21T23:47:25.231Z,3.53
2023-03-21T23:49:53.503Z,3.20
2023-03-21T23:52:22.609Z,4.53
2023-03-21T23:54:50.822Z,4.83
2023-03-21T23:57:18.987Z,4.83
2023-03-21T23:59:47.222Z,5.70
